Terminal Aerodrome Forecast
Issued by NWS Quad Cities IA IL

Home | Current Version | Previous Version | Text Only | Print | Product List | Glossary On
Versions: 1 2 3 4 5 6 7 8 9 10 11 12 13 14 15 16 17 18 19 20 21
000
FTUS43 KDVN 191100
TAFMLI
TAF
KMLI 191128Z 1912/2012 10005KT 2SM BR SKC
      TEMPO 1912/1914 4SM BR SCT004
     FM191400 18011KT P6SM SCT030 SCT250
     FM200400 18008KT P6SM BKN030=

USA.gov is the U.S. government's official web portal to all federal, state and local government web resources and services.